Bob Baker Memorial Airport Kiana US
ICAO: PAIK
IATA:
Category: Medium
Scheduled Services:

Elevation: 166 ft
TransAlt. 18000 ft.

Airport Communications:
ANCHORAGE CNTR:119.2
CTAF:122.7

PAIK Zoom In..

If you have problems with the map follow the link
https://www.worldairports.se/pages/airport.php?
ICAO=PAIK

Runways:

(A) RW 06 length 3400 ft width 100 ft
---- / hdg 64

(B) RW 24 length 3400 ft width 100 ft
---- / hdg 244

Location; PAIK
Day. 17 / Time. 01.56 Zulu
* Altimeter: 29.92
* Temperature: -06° c. -21.2°f.
* Wind from: 090° Speed 12 kn.
Dewpoint: -14° c.
Visibility: 10 Statute Miles.
Clouds: Overcast 1000 ft.

PAIK 170156Z AUTO 09012KT 10SM OVC100 M06/M14 A2992 RMK AO2 SLP137 T10561139 FZRANO


Wind From 090°
Speed 12 kn.

 
 
jpsmedia.com for Web Design worldairports.se 2018   terms of use